Time;durP1;ratioP1;P1;durP2;ratioP2;P2;SDS_P1;SDS_P2;PMS_P1;PMS_P2;Temp;Humidity;BMP_temperature;BMP_pressure;BME280_temperature;BME280_humidity;BME280_pressure;Samples;Min_cycle;Max_cycle;Signal;HPM_P1;HPM_P2
2023/01/11 00:02:24;;;;;;;;;;;;;;;3.35;100.00;100497.84;5568529;32;34313;-71
2023/01/11 00:05:38;;;;;;;;;;;;;;;3.35;100.00;100492.59;5568512;32;34567;-70
2023/01/11 00:08:45;;;;;;;;;;;;;;;3.40;100.00;100487.81;5567442;32;33243;-71
2023/01/11 00:11:52;;;;;;;;;;;;;;;3.40;100.00;100492.22;5568287;32;34383;-69
2023/01/11 00:15:00;;;;;;;;;;;;;;;3.39;100.00;100495.81;5567369;32;34649;-71
2023/01/11 00:18:08;;;;;;;;;;;;;;;3.29;100.00;100497.50;5568400;32;33895;-70
2023/01/11 00:21:13;;;;;;;;;;;;;;;3.25;100.00;100506.53;5568377;32;35042;-70
2023/01/11 00:24:21;;;;;;;;;;;;;;;3.25;100.00;100496.88;5567375;32;34043;-70
2023/01/11 00:27:28;;;;;;;;;;;;;;;3.23;100.00;100483.06;5568405;32;34662;-69
2023/01/11 00:30:37;;;;;;;;;;;;;;;3.21;100.00;100495.44;5567448;32;34571;-70
2023/01/11 00:33:44;;;;;;;;;;;;;;;3.29;100.00;100497.50;5568363;32;34246;-70
2023/01/11 00:36:51;;;;;;;;;;;;;;;3.29;100.00;100495.69;5566900;32;33584;-70
2023/01/11 00:39:58;;;;;;;;;;;;;;;3.27;100.00;100497.59;5567450;32;34161;-72
2023/01/11 00:50:04;;;;;;;;;;;;;;;3.32;100.00;100492.00;5568220;32;33868;-71
2023/01/11 00:53:13;;;;;;;;;;;;;;;3.35;100.00;100517.97;5568180;32;34473;-71
2023/01/11 00:56:24;;;;;;;;;;;;;;;3.42;100.00;100506.06;5568157;32;34421;-70
2023/01/11 00:59:39;;;;;;;;;;;;;;;3.33;100.00;100517.28;5566911;32;34460;-71
2023/01/11 01:02:50;;;;;;;;;;;;;;;3.34;100.00;100518.94;5568019;32;34305;-70
2023/01/11 01:05:55;;;;;;;;;;;;;;;3.31;100.00;100513.94;5568153;32;34719;-70
2023/01/11 01:09:04;;;;;;;;;;;;;;;3.22;100.00;100527.75;5568617;32;34703;-70
2023/01/11 01:12:11;;;;;;;;;;;;;;;3.23;100.00;100543.38;5567856;32;34247;-71
2023/01/11 01:15:19;;;;;;;;;;;;;;;3.21;100.00;100533.94;5566741;32;34571;-71
2023/01/11 01:18:26;;;;;;;;;;;;;;;3.20;100.00;100538.34;5567940;32;34933;-70
2023/01/11 01:21:33;;;;;;;;;;;;;;;3.22;100.00;100531.19;5567930;32;34609;-71
2023/01/11 01:24:41;;;;;;;;;;;;;;;3.21;100.00;100537.38;5567948;32;34304;-71
2023/01/11 01:27:48;;;;;;;;;;;;;;;3.24;100.00;100542.41;5567041;32;34410;-70
2023/01/11 01:30:56;;;;;;;;;;;;;;;3.09;100.00;100538.34;5567870;32;34154;-70
2023/01/11 01:34:05;;;;;;;;;;;;;;;3.05;100.00;100556.06;5566996;32;34713;-70
2023/01/11 01:37:11;;;;;;;;;;;;;;;3.02;100.00;100555.47;5567022;32;34440;-70
2023/01/11 01:40:17;;;;;;;;;;;;;;;3.01;100.00;100546.75;5568137;32;34263;-71
2023/01/11 01:43:43;;;;;;;;;;;;;;;3.08;100.00;100548.94;5568094;32;35253;-70
2023/01/11 01:46:55;;;;;;;;;;;;;;;3.06;100.00;100555.13;5567772;32;34296;-70
2023/01/11 01:50:15;;;;;;;;;;;;;;;2.99;100.00;100560.94;5567571;32;34128;-70
2023/01/11 01:53:29;;;;;;;;;;;;;;;2.99;100.00;100553.09;5567630;32;34416;-70
2023/01/11 01:56:42;;;;;;;;;;;;;;;3.00;100.00;100550.31;5567673;32;34353;-71
2023/01/11 01:59:55;;;;;;;;;;;;;;;2.96;100.00;100553.28;5566436;32;33794;-70
2023/01/11 02:03:02;;;;;;;;;;;;;;;3.10;100.00;100552.28;5567517;32;34223;-70
2023/01/11 02:06:09;;;;;;;;;;;;;;;3.05;100.00;100550.81;5567003;32;34193;-71
2023/01/11 02:09:22;;;;;;;;;;;;;;;3.00;100.00;100550.31;5567359;32;34341;-70
2023/01/11 02:12:39;;;;;;;;;;;;;;;2.95;100.00;100564.75;5566659;32;33356;-71
2023/01/11 02:15:46;;;;;;;;;;;;;;;2.95;100.00;100568.19;5566521;32;34254;-70
2023/01/11 02:18:55;;;;;;;;;;;;;;;2.92;100.00;100572.81;5566776;32;34243;-71
2023/01/11 02:22:40;;;;;;;;;;;;;;;2.91;100.00;100569.37;5567195;32;34507;-70
2023/01/11 02:26:06;;;;;;;;;;;;;;;2.91;100.00;100566.75;5488026;32;34173;-70
2023/01/11 02:29:14;;;;;;;;;;;;;;;2.79;100.00;100574.69;5484059;31;35033;-70
2023/01/11 02:32:28;;;;;;;;;;;;;;;2.70;100.00;100578.00;5566291;32;34136;-70
2023/01/11 02:36:03;;;;;;;;;;;;;;;2.70;100.00;100575.38;5567036;32;34880;-71
2023/01/11 02:39:15;;;;;;;;;;;;;;;2.67;100.00;100584.28;5565763;32;34298;-70
2023/01/11 02:46:20;;;;;;;;;;;;;;;2.65;100.00;100588.81;5566917;32;35550;-70
2023/01/11 02:49:28;;;;;;;;;;;;;;;2.64;100.00;100589.75;5565915;32;34453;-70
2023/01/11 02:52:50;;;;;;;;;;;;;;;2.55;100.00;100588.66;5566711;32;34076;-70
2023/01/11 02:55:58;;;;;;;;;;;;;;;2.57;100.00;100576.25;5566519;32;35065;-71
2023/01/11 02:59:08;;;;;;;;;;;;;;;2.57;100.00;100580.66;5566584;32;34931;-71
2023/01/11 03:02:13;;;;;;;;;;;;;;;2.65;100.00;100585.34;5553077;32;34830;-71
2023/01/11 03:05:22;;;;;;;;;;;;;;;2.56;100.00;100577.22;5553414;32;34679;-71
2023/01/11 03:08:36;;;;;;;;;;;;;;;2.50;100.00;100579.44;5552427;32;34331;-70
2023/01/11 03:15:47;;;;;;;;;;;;;;;2.49;100.00;100590.88;5566249;32;34378;-70
2023/01/11 03:19:06;;;;;;;;;;;;;;;2.40;100.00;100591.53;5552220;32;32455;-70
2023/01/11 03:22:26;;;;;;;;;;;;;;;2.40;100.00;100605.47;5567353;32;34761;-70
2023/01/11 03:25:54;;;;;;;;;;;;;;;2.36;100.00;100611.88;5555813;32;34053;-70
2023/01/11 03:29:10;;;;;;;;;;;;;;;2.28;100.00;100616.78;5568718;31;35106;-71
2023/01/11 03:32:24;;;;;;;;;;;;;;;2.36;100.00;100622.34;5569052;32;34054;-70
2023/01/11 03:35:38;;;;;;;;;;;;;;;2.43;100.00;100641.03;5568749;32;34887;-71
2023/01/11 03:38:50;;;;;;;;;;;;;;;2.37;100.00;100636.28;5555414;32;34482;-71
2023/01/11 03:41:59;;;;;;;;;;;;;;;2.33;100.00;100638.25;5568783;32;34931;-70
2023/01/11 03:45:08;;;;;;;;;;;;;;;2.22;100.00;100642.59;5568731;32;34049;-71
2023/01/11 03:48:21;;;;;;;;;;;;;;;2.29;100.00;100631.56;5568733;32;34579;-70
2023/01/11 03:51:33;;;;;;;;;;;;;;;2.31;100.00;100627.06;5568654;32;34691;-70
2023/01/11 03:54:41;;;;;;;;;;;;;;;2.34;100.00;100616.37;5568607;32;34034;-72
2023/01/11 03:57:50;;;;;;;;;;;;;;;2.36;100.00;100609.25;5568601;32;35612;-70
2023/01/11 04:00:58;;;;;;;;;;;;;;;2.37;100.00;100595.19;5568744;32;35076;-71
2023/01/11 04:04:08;;;;;;;;;;;;;;;2.42;100.00;100585.22;5554206;32;34560;-70
2023/01/11 04:07:14;;;;;;;;;;;;;;;2.42;100.00;100589.66;5568658;32;34481;-70
2023/01/11 04:10:24;;;;;;;;;;;;;;;2.38;100.00;100594.25;5568891;32;34558;-70
2023/01/11 04:13:33;;;;;;;;;;;;;;;2.33;100.00;100600.75;5568302;32;34823;-71
2023/01/11 04:16:42;;;;;;;;;;;;;;;2.31;100.00;100593.03;5542132;32;32957;-70
2023/01/11 04:19:50;;;;;;;;;;;;;;;2.33;100.00;100603.37;5568552;32;34725;-70
2023/01/11 04:22:59;;;;;;;;;;;;;;;2.31;100.00;100605.28;5554407;32;32605;-70
2023/01/11 04:26:04;;;;;;;;;;;;;;;2.34;100.00;100610.28;5568353;32;34912;-70
2023/01/11 04:29:11;;;;;;;;;;;;;;;2.21;100.00;100610.34;5554979;32;34139;-72
2023/01/11 04:32:19;;;;;;;;;;;;;;;2.25;100.00;100613.56;5554090;32;34152;-71
2023/01/11 04:35:26;;;;;;;;;;;;;;;2.24;100.00;100620.56;5567698;32;34287;-71
2023/01/11 04:38:35;;;;;;;;;;;;;;;2.24;100.00;100619.75;5568330;32;34003;-71
2023/01/11 04:45:08;;;;;;;;;;;;;;;2.32;100.00;100596.50;5568313;32;34138;-71
2023/01/11 04:48:14;;;;;;;;;;;;;;;2.35;100.00;100618.03;5554989;32;34380;-72
2023/01/11 04:51:26;;;;;;;;;;;;;;;2.31;100.00;100626.22;5568174;32;34064;-72
2023/01/11 04:54:33;;;;;;;;;;;;;;;2.30;100.00;100641.09;5554004;32;33244;-72
2023/01/11 04:57:42;;;;;;;;;;;;;;;2.24;100.00;100657.22;5568123;32;34982;-72
2023/01/11 05:00:57;;;;;;;;;;;;;;;2.19;100.00;100651.47;5568128;32;34414;-72
2023/01/11 05:04:03;;;;;;;;;;;;;;;2.18;100.00;100634.09;5567937;32;34201;-71
2023/01/11 05:07:10;;;;;;;;;;;;;;;2.14;100.00;100637.88;5554767;32;34322;-72
2023/01/11 05:10:16;;;;;;;;;;;;;;;2.14;100.00;100637.88;5567728;32;34737;-72
2023/01/11 05:13:41;;;;;;;;;;;;;;;2.06;100.00;100648.06;5553892;32;35052;-71
2023/01/11 05:16:46;;;;;;;;;;;;;;;2.05;100.00;100654.22;5553878;32;34712;-71
2023/01/11 05:19:56;;;;;;;;;;;;;;;2.02;100.00;100623.06;5553562;32;33473;-73
2023/01/11 05:23:06;;;;;;;;;;;;;;;2.01;100.00;100632.66;5553802;32;34708;-72
2023/01/11 05:26:13;;;;;;;;;;;;;;;2.00;100.00;100641.47;5568168;32;34123;-72
2023/01/11 05:29:20;;;;;;;;;;;;;;;1.94;100.00;100641.03;5567856;32;34215;-71
2023/01/11 05:32:28;;;;;;;;;;;;;;;1.82;100.00;100645.34;5540921;32;33329;-72
2023/01/11 05:35:34;;;;;;;;;;;;;;;1.88;100.00;100655.41;5567660;32;34997;-71
2023/01/11 05:38:44;;;;;;;;;;;;;;;1.80;100.00;100662.09;5567812;32;34258;-72
2023/01/11 05:41:51;;;;;;;;;;;;;;;1.81;100.00;100648.91;5554242;32;33778;-73
2023/01/11 05:48:24;;;;;;;;;;;;;;;1.75;100.00;100639.69;5567170;32;33421;-72
2023/01/11 05:51:31;;;;;;;;;;;;;;;1.85;100.00;100624.22;5554131;32;34362;-72
2023/01/11 05:54:35;;;;;;;;;;;;;;;1.85;100.00;100633.84;5567419;32;34455;-72
2023/01/11 05:57:40;;;;;;;;;;;;;;;1.79;100.00;100644.75;5554166;32;34917;-72
2023/01/11 06:00:49;;;;;;;;;;;;;;;1.68;100.00;100641.06;5567366;32;34015;-72
2023/01/11 06:03:55;;;;;;;;;;;;;;;1.64;100.00;100628.31;5567558;32;34205;-72
2023/01/11 06:07:00;;;;;;;;;;;;;;;1.71;100.00;100627.78;5567351;32;34283;-72
2023/01/11 06:10:08;;;;;;;;;;;;;;;1.67;100.00;100622.88;5553824;32;34331;-72
2023/01/11 06:13:26;;;;;;;;;;;;;;;1.70;100.00;100623.47;5566355;32;34067;-72
2023/01/11 06:16:32;;;;;;;;;;;;;;;1.74;100.00;100622.31;5566629;32;34382;-72
2023/01/11 06:19:39;;;;;;;;;;;;;;;1.72;100.00;100624.22;5552997;32;34709;-72
2023/01/11 06:22:45;;;;;;;;;;;;;;;1.69;100.00;100631.47;5566649;32;34452;-72
2023/01/11 06:25:51;;;;;;;;;;;;;;;1.62;100.00;100636.25;5566121;32;34102;-72
2023/01/11 06:28:56;;;;;;;;;;;;;;;1.67;100.00;100646.41;5566425;32;33642;-72
2023/01/11 06:32:01;;;;;;;;;;;;;;;1.56;100.00;100633.22;5540367;32;33014;-73
2023/01/11 06:35:06;;;;;;;;;;;;;;;1.59;100.00;100619.94;5566485;32;33412;-72
2023/01/11 06:38:11;;;;;;;;;;;;;;;1.64;100.00;100629.16;5566394;32;34273;-72
2023/01/11 06:41:15;;;;;;;;;;;;;;;1.64;100.00;100639.63;5565786;32;34296;-72
2023/01/11 06:44:20;;;;;;;;;;;;;;;1.47;100.00;100639.91;5552415;32;35535;-72
2023/01/11 06:47:25;;;;;;;;;;;;;;;1.56;100.00;100617.53;5565451;32;34915;-72
2023/01/11 06:50:34;;;;;;;;;;;;;;;1.64;100.00;100638.78;5546955;32;34407;-72
2023/01/11 06:53:42;;;;;;;;;;;;;;;1.52;100.00;100653.50;5566249;32;34168;-72
2023/01/11 06:56:45;;;;;;;;;;;;;;;1.44;100.00;100653.19;5551850;32;33729;-72
2023/01/11 06:59:50;;;;;;;;;;;;;;;1.47;100.00;100670.44;5553395;32;34093;-72
2023/01/11 07:02:54;;;;;;;;;;;;;;;1.51;100.00;100670.13;5567288;32;34174;-72
2023/01/11 07:05:58;;;;;;;;;;;;;;;1.63;100.00;100665.88;5550759;32;33534;-72
2023/01/11 07:09:01;;;;;;;;;;;;;;;1.69;100.00;100681.16;5544433;32;33087;-73
2023/01/11 07:12:07;;;;;;;;;;;;;;;1.67;100.00;100686.47;5554747;32;34304;-72
2023/01/11 07:15:11;;;;;;;;;;;;;;;1.67;100.00;100689.09;5554771;32;34271;-72
2023/01/11 07:18:15;;;;;;;;;;;;;;;1.73;100.00;100690.47;5568441;32;34863;-72
2023/01/11 07:21:18;;;;;;;;;;;;;;;1.66;100.00;100702.25;5567956;32;34781;-71
2023/01/11 07:24:23;;;;;;;;;;;;;;;1.65;100.00;100708.41;5553584;32;35210;-70
2023/01/11 07:27:27;;;;;;;;;;;;;;;1.62;100.00;100719.94;5553933;32;32987;-70
2023/01/11 07:30:32;;;;;;;;;;;;;;;1.65;100.00;100727.56;5567585;32;34717;-70
2023/01/11 07:33:54;;;;;;;;;;;;;;;1.79;100.00;100724.06;5567936;32;34088;-71
2023/01/11 07:36:59;;;;;;;;;;;;;;;1.83;100.00;100720.28;5553163;32;34197;-70
2023/01/11 07:40:04;;;;;;;;;;;;;;;1.84;100.00;100719.31;5541615;32;33086;-70
2023/01/11 07:43:13;;;;;;;;;;;;;;;1.92;100.00;100731.91;5554279;32;32740;-69
2023/01/11 07:46:17;;;;;;;;;;;;;;;1.97;100.00;100730.66;5552427;32;34346;-69
2023/01/11 07:49:22;;;;;;;;;;;;;;;2.09;100.00;100729.78;5553121;32;32756;-69
2023/01/11 07:52:31;;;;;;;;;;;;;;;2.02;100.00;100728.56;5564137;32;34356;-69
2023/01/11 07:55:38;;;;;;;;;;;;;;;2.17;100.00;100717.03;5567868;32;35011;-72
2023/01/11 07:58:42;;;;;;;;;;;;;;;2.21;100.00;100716.81;5552652;32;34961;-70
2023/01/11 08:01:47;;;;;;;;;;;;;;;2.38;100.00;100717.31;5560008;32;36182;-69
2023/01/11 08:04:52;;;;;;;;;;;;;;;2.35;100.00;100712.28;5566939;32;34187;-71
2023/01/11 08:07:55;;;;;;;;;;;;;;;2.38;100.00;100711.22;5565990;32;34400;-71
2023/01/11 08:14:40;;;;;;;;;;;;;;;2.26;100.00;100733.03;5552143;32;33205;-71
2023/01/11 08:17:45;;;;;;;;;;;;;;;2.34;100.00;100735.94;5558682;32;34049;-70
2023/01/11 08:20:53;;;;;;;;;;;;;;;2.37;100.00;100733.13;5567546;32;34509;-70
2023/01/11 08:23:59;;;;;;;;;;;;;;;2.39;100.00;100734.69;5566007;32;34157;-70
2023/01/11 08:27:03;;;;;;;;;;;;;;;2.41;100.00;100735.44;5567837;32;35092;-70
2023/01/11 08:30:08;;;;;;;;;;;;;;;2.46;100.00;100728.09;5542021;32;33699;-71
2023/01/11 08:33:12;;;;;;;;;;;;;;;2.56;100.00;100730.91;5560680;32;34197;-70
2023/01/11 08:36:16;;;;;;;;;;;;;;;2.54;100.00;100735.41;5555480;32;34939;-70
2023/01/11 08:39:20;;;;;;;;;;;;;;;2.46;100.00;100740.34;5566310;32;34298;-71
2023/01/11 08:42:23;;;;;;;;;;;;;;;2.41;100.00;100751.16;5551038;32;34057;-70
2023/01/11 08:45:27;;;;;;;;;;;;;;;2.44;100.00;100752.69;5552808;32;34959;-70
2023/01/11 08:48:31;;;;;;;;;;;;;;;2.46;100.00;100751.66;5566511;32;34493;-71
2023/01/11 08:51:35;;;;;;;;;;;;;;;2.55;100.00;100740.53;5567271;32;34906;-70
2023/01/11 08:54:41;;;;;;;;;;;;;;;2.62;100.00;100733.91;5565211;32;34343;-70
2023/01/11 08:57:45;;;;;;;;;;;;;;;2.74;100.00;100744.47;5567813;32;34405;-71
2023/01/11 09:00:50;;;;;;;;;;;;;;;2.62;100.00;100748.78;5567639;32;34678;-70
2023/01/11 09:03:55;;;;;;;;;;;;;;;2.65;100.00;100758.22;5567774;32;34286;-70
2023/01/11 09:07:00;;;;;;;;;;;;;;;2.83;100.00;100746.44;5553455;32;34269;-70
2023/01/11 09:10:04;;;;;;;;;;;;;;;2.95;100.00;100749.00;5566628;32;34917;-71
2023/01/11 09:13:09;;;;;;;;;;;;;;;3.03;100.00;100757.16;5552454;32;33193;-71
2023/01/11 09:16:13;;;;;;;;;;;;;;;3.08;100.00;100753.38;5564725;32;34892;-70
2023/01/11 09:19:17;;;;;;;;;;;;;;;3.17;100.00;100750.91;5566543;32;34305;-70
2023/01/11 09:22:21;;;;;;;;;;;;;;;3.29;100.00;100752.63;5568060;32;34290;-71
2023/01/11 09:25:25;;;;;;;;;;;;;;;3.40;100.00;100747.44;5566995;32;34958;-71
2023/01/11 09:28:29;;;;;;;;;;;;;;;3.48;100.00;100758.22;5567938;32;34158;-71
2023/01/11 09:31:35;;;;;;;;;;;;;;;3.66;100.00;100742.06;5566873;32;34668;-70
2023/01/11 09:34:41;;;;;;;;;;;;;;;3.73;100.00;100744.09;5567801;32;34942;-71
2023/01/11 09:37:50;;;;;;;;;;;;;;;3.99;100.00;100744.75;5554499;32;34888;-72
2023/01/11 09:41:03;;;;;;;;;;;;;;;4.12;100.00;100736.78;5565939;32;32751;-72
2023/01/11 09:44:15;;;;;;;;;;;;;;;4.20;100.00;100732.63;5566540;32;35424;-71
2023/01/11 09:47:32;;;;;;;;;;;;;;;4.38;100.00;100735.59;5549168;32;33199;-71
2023/01/11 09:50:40;;;;;;;;;;;;;;;4.42;100.00;100739.66;5566924;32;34380;-71
2023/01/11 09:53:51;;;;;;;;;;;;;;;4.66;100.00;100742.16;5566800;32;34128;-71
2023/01/11 09:57:01;;;;;;;;;;;;;;;4.78;100.00;100749.91;5553862;32;34205;-71
2023/01/11 10:00:13;;;;;;;;;;;;;;;4.97;100.00;100738.75;5566295;32;34597;-70
2023/01/11 10:03:32;;;;;;;;;;;;;;;5.02;100.00;100735.75;5565166;32;34279;-70
2023/01/11 10:06:49;;;;;;;;;;;;;;;4.94;100.00;100725.03;5565990;32;35203;-70
2023/01/11 10:10:07;;;;;;;;;;;;;;;5.03;100.00;100711.16;5538626;32;32852;-70
2023/01/11 10:13:42;;;;;;;;;;;;;;;5.11;100.00;100706.09;5554322;32;33850;-71
2023/01/11 10:17:02;;;;;;;;;;;;;;;5.10;100.00;100707.03;5556535;31;33758;-70
2023/01/11 10:20:33;;;;;;;;;;;;;;;5.30;100.00;100692.25;5541075;32;32776;-70
2023/01/11 10:23:57;;;;;;;;;;;;;;;5.40;100.00;100696.66;5541309;32;32766;-71
2023/01/11 10:27:06;;;;;;;;;;;;;;;5.49;100.00;100700.31;5565604;32;34291;-70
2023/01/11 10:33:48;;;;;;;;;;;;;;;5.68;100.00;100695.19;5566536;32;34519;-72
2023/01/11 10:41:01;;;;;;;;;;;;;;;5.86;100.00;100701.50;5564870;32;34723;-70
2023/01/11 10:44:08;;;;;;;;;;;;;;;5.95;100.00;100699.97;5554973;32;34748;-71
2023/01/11 10:47:18;;;;;;;;;;;;;;;6.12;100.00;100699.34;5555598;32;34241;-71
2023/01/11 10:50:26;;;;;;;;;;;;;;;6.06;100.00;100698.06;5539861;32;36219;-71
2023/01/11 10:53:33;;;;;;;;;;;;;;;6.15;100.00;100704.31;5566497;32;34948;-71
2023/01/11 10:56:55;;;;;;;;;;;;;;;6.17;100.00;100698.94;5566153;32;34045;-71
2023/01/11 11:00:09;;;;;;;;;;;;;;;6.41;100.00;100702.94;5555758;32;33125;-71
2023/01/11 11:03:23;;;;;;;;;;;;;;;6.43;100.00;100701.00;5538877;32;34714;-71
2023/01/11 11:06:40;;;;;;;;;;;;;;;6.49;100.00;100700.44;5565882;32;34590;-71
2023/01/11 11:09:52;;;;;;;;;;;;;;;6.58;100.00;100701.47;5565171;32;34378;-71
2023/01/11 11:13:06;;;;;;;;;;;;;;;6.70;100.00;100697.75;5565252;32;34525;-71
2023/01/11 11:16:21;;;;;;;;;;;;;;;6.73;100.00;100701.94;5565836;32;34917;-71
2023/01/11 11:19:30;;;;;;;;;;;;;;;6.82;100.00;100687.94;5564301;32;35861;-71
2023/01/11 11:22:37;;;;;;;;;;;;;;;6.78;100.00;100675.97;5565414;32;33902;-70
2023/01/11 11:25:45;;;;;;;;;;;;;;;6.78;100.00;100665.41;5553079;32;34709;-71
2023/01/11 11:29:04;;;;;;;;;;;;;;;6.68;100.00;100662.75;5564747;32;34775;-70
2023/01/11 11:32:16;;;;;;;;;;;;;;;6.80;100.00;100666.12;5565252;32;35275;-70
2023/01/11 11:35:38;;;;;;;;;;;;;;;6.90;100.00;100659.06;5564339;32;34024;-70
2023/01/11 11:39:01;;;;;;;;;;;;;;;6.92;100.00;100657.13;5552659;32;33349;-71
2023/01/11 11:42:14;;;;;;;;;;;;;;;7.13;100.00;100659.62;5556780;32;33199;-71
2023/01/11 11:45:17;;;;;;;;;;;;;;;7.01;100.00;100650.19;5568499;32;34766;-71
2023/01/11 11:48:21;;;;;;;;;;;;;;;7.16;100.00;100654.91;5568559;32;34280;-71
2023/01/11 11:51:26;;;;;;;;;;;;;;;7.04;100.00;100650.75;5567219;32;33054;-71
2023/01/11 11:54:30;;;;;;;;;;;;;;;7.11;100.00;100664.22;5567231;32;34943;-70
2023/01/11 11:57:37;;;;;;;;;;;;;;;7.16;100.00;100665.47;5568279;32;34398;-71
2023/01/11 12:00:46;;;;;;;;;;;;;;;7.17;100.00;100659.19;5553900;32;34901;-70
2023/01/11 12:03:51;;;;;;;;;;;;;;;7.25;100.00;100659.38;5568112;32;33985;-71
2023/01/11 12:07:05;;;;;;;;;;;;;;;7.30;100.00;100664.22;5568295;32;34046;-71
2023/01/11 12:10:12;;;;;;;;;;;;;;;7.31;100.00;100661.41;5568423;32;34164;-71
2023/01/11 12:13:31;;;;;;;;;;;;;;;7.23;100.00;100660.44;5553980;32;34016;-70
2023/01/11 12:16:39;;;;;;;;;;;;;;;7.34;100.00;100662.97;5554160;32;34456;-70
2023/01/11 12:19:46;;;;;;;;;;;;;;;7.90;100.00;100655.06;5554052;32;33888;-70
2023/01/11 12:23:07;;;;;;;;;;;;;;;8.40;99.24;100658.22;5568202;32;34300;-70
2023/01/11 12:26:14;;;;;;;;;;;;;;;8.81;95.76;100664.00;5554814;32;34492;-71
2023/01/11 12:29:38;;;;;;;;;;;;;;;9.14;90.80;100658.88;5531380;32;34023;-71
2023/01/11 12:33:00;;;;;;;;;;;;;;;9.33;88.17;100667.63;5531168;32;34084;-71
2023/01/11 12:36:08;;;;;;;;;;;;;;;8.99;88.18;100676.25;5562334;32;35107;-71
2023/01/11 12:39:29;;;;;;;;;;;;;;;9.19;83.86;100676.94;5555214;32;34909;-71
2023/01/11 12:42:37;;;;;;;;;;;;;;;9.28;82.44;100670.72;5550720;32;34099;-70
2023/01/11 12:46:03;;;;;;;;;;;;;;;9.44;80.43;100672.69;5568138;32;34794;-72
2023/01/11 12:49:15;;;;;;;;;;;;;;;9.08;81.03;100669.22;5538183;32;33328;-71
2023/01/11 12:52:43;;;;;;;;;;;;;;;9.19;83.39;100663.69;5553663;32;33264;-71
2023/01/11 12:55:56;;;;;;;;;;;;;;;9.78;79.45;100673.59;5553702;32;34129;-71
2023/01/11 12:58:58;;;;;;;;;;;;;;;9.86;77.56;100676.31;5553745;32;33185;-71
2023/01/11 13:02:20;;;;;;;;;;;;;;;9.94;74.90;100671.03;5557125;32;34529;-70
2023/01/11 13:05:25;;;;;;;;;;;;;;;9.97;78.01;100665.41;5552850;32;34917;-70
2023/01/11 13:08:29;;;;;;;;;;;;;;;9.72;74.64;100655.69;5541532;32;34251;-71
2023/01/11 13:11:51;;;;;;;;;;;;;;;9.55;74.98;100648.59;5540943;32;34358;-71
2023/01/11 13:15:08;;;;;;;;;;;;;;;9.44;75.95;100662.91;5552518;32;34279;-70
2023/01/11 13:18:18;;;;;;;;;;;;;;;9.07;80.67;100656.97;5541290;32;35245;-71
2023/01/11 13:21:33;;;;;;;;;;;;;;;8.78;84.12;100664.28;5553906;32;34533;-70
2023/01/11 13:24:38;;;;;;;;;;;;;;;8.69;85.16;100655.41;5567906;32;34084;-70
2023/01/11 13:27:44;;;;;;;;;;;;;;;8.25;84.76;100657.03;5532796;32;34409;-70
2023/01/11 13:30:48;;;;;;;;;;;;;;;8.17;88.15;100662.22;5553663;32;34400;-70
2023/01/11 13:33:56;;;;;;;;;;;;;;;8.05;85.52;100666.00;5554072;32;35076;-70
2023/01/11 13:37:03;;;;;;;;;;;;;;;8.06;86.92;100671.16;5567580;32;34155;-70
2023/01/11 13:40:07;;;;;;;;;;;;;;;8.07;90.62;100678.09;5567917;32;34882;-70
2023/01/11 13:43:18;;;;;;;;;;;;;;;8.03;93.13;100670.59;5559115;32;34899;-69
2023/01/11 13:46:28;;;;;;;;;;;;;;;7.93;92.85;100673.28;5553066;32;34103;-70
2023/01/11 13:49:52;;;;;;;;;;;;;;;7.91;94.48;100683.16;5553659;32;34398;-70
2023/01/11 13:53:23;;;;;;;;;;;;;;;7.84;95.13;100688.16;5552992;32;34534;-70
2023/01/11 13:56:38;;;;;;;;;;;;;;;7.75;95.89;100670.53;5554011;32;35556;-70
2023/01/11 13:59:45;;;;;;;;;;;;;;;7.53;100.00;100667.37;5566535;32;34112;-70
2023/01/11 14:02:54;;;;;;;;;;;;;;;7.66;97.74;100674.03;5567135;32;34890;-70
2023/01/11 14:06:06;;;;;;;;;;;;;;;7.55;99.21;100673.38;5565797;32;34817;-70
2023/01/11 14:09:19;;;;;;;;;;;;;;;7.47;100.00;100681.13;5567149;32;34906;-70
2023/01/11 14:12:32;;;;;;;;;;;;;;;7.51;100.00;100679.88;5566249;32;33902;-69
2023/01/11 14:15:43;;;;;;;;;;;;;;;7.36;100.00;100676.84;5553356;32;32814;-69
2023/01/11 14:19:23;;;;;;;;;;;;;;;7.43;99.64;100681.44;5566130;32;34722;-69
2023/01/11 14:22:27;;;;;;;;;;;;;;;7.33;100.00;100680.59;5462610;32;33414;-71
2023/01/11 14:25:37;;;;;;;;;;;;;;;7.07;100.00;100668.13;5475131;32;34273;-71
2023/01/11 14:28:47;;;;;;;;;;;;;;;7.05;100.00;100654.22;5474708;32;33910;-71
2023/01/11 14:32:03;;;;;;;;;;;;;;;7.01;100.00;100660.75;5474564;32;33962;-71
2023/01/11 14:35:12;;;;;;;;;;;;;;;6.93;100.00;100661.41;5474030;32;34392;-71
2023/01/11 14:38:27;;;;;;;;;;;;;;;6.83;100.00;100652.66;5460995;32;34940;-71
2023/01/11 14:41:34;;;;;;;;;;;;;;;6.71;100.00;100672.22;5458480;32;34587;-71
2023/01/11 14:44:52;;;;;;;;;;;;;;;6.75;100.00;100670.97;5461280;32;35690;-69
2023/01/11 14:48:15;;;;;;;;;;;;;;;6.57;100.00;100665.53;5476197;32;33027;-70
2023/01/11 14:51:27;;;;;;;;;;;;;;;6.43;100.00;100668.56;5449369;32;33079;-70
2023/01/11 14:54:38;;;;;;;;;;;;;;;6.43;100.00;100661.47;5480502;32;35035;-69
2023/01/11 14:57:57;;;;;;;;;;;;;;;6.29;100.00;100655.75;5550312;32;32459;-70
2023/01/11 15:01:06;;;;;;;;;;;;;;;6.21;100.00;100664.28;5539161;32;34845;-69
2023/01/11 15:04:23;;;;;;;;;;;;;;;6.22;100.00;100659.88;5565481;32;34082;-69
2023/01/11 15:07:28;;;;;;;;;;;;;;;6.09;100.00;100652.19;5550177;32;34255;-69
2023/01/11 15:10:33;;;;;;;;;;;;;;;6.02;100.00;100654.53;5551858;32;33755;-70
2023/01/11 15:13:48;;;;;;;;;;;;;;;5.98;100.00;100657.56;5565131;32;33743;-70
2023/01/11 15:20:20;;;;;;;;;;;;;;;5.77;100.00;100649.63;5554572;32;34128;-70
2023/01/11 15:23:26;;;;;;;;;;;;;;;5.76;100.00;100644.53;5529477;32;34001;-70
2023/01/11 15:26:46;;;;;;;;;;;;;;;5.75;100.00;100646.31;5554268;32;34909;-70
2023/01/11 15:29:55;;;;;;;;;;;;;;;5.86;100.00;100669.09;5566718;32;34199;-71
2023/01/11 15:33:15;;;;;;;;;;;;;;;5.76;100.00;100665.59;5566863;32;34890;-70
2023/01/11 15:36:24;;;;;;;;;;;;;;;5.62;100.00;100664.09;5565994;32;34647;-70
2023/01/11 15:39:44;;;;;;;;;;;;;;;5.65;100.00;100669.12;5553826;32;35141;-70
2023/01/11 15:42:48;;;;;;;;;;;;;;;5.65;100.00;100666.50;5540091;32;31909;-71
2023/01/11 15:49:32;;;;;;;;;;;;;;;5.34;100.00;100667.37;5552996;32;34587;-70
2023/01/11 15:52:37;;;;;;;;;;;;;;;5.27;100.00;100659.16;5553722;32;33924;-70
2023/01/11 15:56:00;;;;;;;;;;;;;;;5.41;100.00;100656.22;5540137;32;32913;-70
2023/01/11 15:59:30;;;;;;;;;;;;;;;5.21;100.00;100660.50;5567432;32;34281;-71
2023/01/11 16:02:53;;;;;;;;;;;;;;;5.03;100.00;100658.56;5530545;32;35205;-71
2023/01/11 16:06:08;;;;;;;;;;;;;;;4.79;100.00;100664.81;5553817;32;33400;-70
2023/01/11 16:09:31;;;;;;;;;;;;;;;4.81;100.00;100670.81;5553521;32;33053;-69
2023/01/11 16:12:54;;;;;;;;;;;;;;;4.59;100.00;100665.62;5540549;32;34549;-70
2023/01/11 16:16:16;;;;;;;;;;;;;;;4.47;100.00;100663.94;5567511;32;34285;-69
2023/01/11 16:19:26;;;;;;;;;;;;;;;4.45;100.00;100652.75;5554003;32;33827;-69
2023/01/11 16:22:34;;;;;;;;;;;;;;;4.31;100.00;100652.97;5547171;32;34318;-69
2023/01/11 16:25:41;;;;;;;;;;;;;;;4.16;100.00;100659.47;5549523;32;35824;-69
2023/01/11 16:28:50;;;;;;;;;;;;;;;4.00;100.00;100654.56;5565706;32;34949;-69
2023/01/11 16:31:59;;;;;;;;;;;;;;;3.89;100.00;100660.63;5559227;32;34317;-69
2023/01/11 16:35:15;;;;;;;;;;;;;;;3.81;100.00;100663.03;5566796;32;34208;-70
2023/01/11 16:38:24;;;;;;;;;;;;;;;3.73;100.00;100664.53;5563419;32;33005;-70
2023/01/11 16:41:40;;;;;;;;;;;;;;;3.63;100.00;100661.78;5554114;32;34891;-69
2023/01/11 16:44:47;;;;;;;;;;;;;;;3.57;100.00;100666.69;5547077;32;35236;-70
2023/01/11 16:48:03;;;;;;;;;;;;;;;3.53;100.00;100655.59;5546678;32;34642;-70
2023/01/11 16:51:15;;;;;;;;;;;;;;;3.49;100.00;100664.63;5546948;32;35115;-69
2023/01/11 16:54:26;;;;;;;;;;;;;;;3.45;100.00;100655.31;5534651;32;34453;-70
2023/01/11 16:57:39;;;;;;;;;;;;;;;3.43;100.00;100657.22;5548646;32;34121;-70
2023/01/11 17:00:54;;;;;;;;;;;;;;;3.34;100.00;100661.34;5547058;32;34108;-69